Time;durP1;ratioP1;P1;durP2;ratioP2;P2;SDS_P1;SDS_P2;PMS_P1;PMS_P2;Temp;Humidity;BMP_temperature;BMP_pressure;BME280_temperature;BME280_humidity;BME280_pressure;Samples;Min_cycle;Max_cycle;Signal;HPM_P1;HPM_P2
2023/11/12 00:00:30;;;;;;;14.73;10.50;;;10.40;99.90;;;;;;5053658;28;20686;-60
2023/11/12 00:02:56;;;;;;;11.80;10.60;;;10.50;99.90;;;;;;5055318;28;20497;-60
2023/11/12 00:05:23;;;;;;;11.00;10.00;;;10.40;99.90;;;;;;5054705;28;20689;-60
2023/11/12 00:07:49;;;;;;;11.37;10.33;;;10.40;99.90;;;;;;5055181;28;20536;-59
2023/11/12 00:10:14;;;;;;;11.40;10.20;;;10.50;99.90;;;;;;5054656;28;20419;-59
2023/11/12 00:12:41;;;;;;;12.17;10.97;;;10.30;99.90;;;;;;5055051;28;20429;-59
2023/11/12 00:15:07;;;;;;;10.67;9.67;;;10.40;99.90;;;;;;5041997;28;20459;-59
2023/11/12 00:17:33;;;;;;;12.93;11.17;;;10.60;99.90;;;;;;5073402;28;20483;-59
2023/11/12 00:20:00;;;;;;;12.10;9.83;;;10.30;99.90;;;;;;5075069;28;20457;-59
2023/11/12 00:22:27;;;;;;;12.53;11.33;;;10.30;99.90;;;;;;5074479;28;20299;-59
2023/11/12 00:24:53;;;;;;;12.23;11.07;;;10.20;99.90;;;;;;5073704;28;20531;-60
2023/11/12 00:27:19;;;;;;;11.63;10.53;;;10.20;99.90;;;;;;5074408;28;20483;-59
2023/11/12 00:29:44;;;;;;;13.80;11.87;;;10.30;99.90;;;;;;5074598;28;20177;-60
2023/11/12 00:32:10;;;;;;;10.90;9.90;;;10.20;99.90;;;;;;5072537;28;20180;-60
2023/11/12 00:34:36;;;;;;;12.67;11.57;;;10.20;99.90;;;;;;5073942;28;20505;-59
2023/11/12 00:37:03;;;;;;;11.30;10.30;;;10.30;99.90;;;;;;5074832;28;20410;-60
2023/11/12 00:39:31;;;;;;;12.10;10.70;;;10.20;99.90;;;;;;5074043;28;20946;-60
2023/11/12 00:41:59;;;;;;;11.10;10.00;;;10.20;99.90;;;;;;5075519;28;20445;-60
2023/11/12 00:44:25;;;;;;;10.30;9.30;;;10.30;99.90;;;;;;5074357;28;20412;-59
2023/11/12 00:46:50;;;;;;;11.17;9.87;;;10.50;99.90;;;;;;5074346;28;20407;-60
2023/11/12 00:49:17;;;;;;;11.87;10.70;;;10.20;99.90;;;;;;5074233;28;20466;-59
2023/11/12 00:51:44;;;;;;;11.37;10.37;;;10.20;99.90;;;;;;5073631;28;20177;-60
2023/11/12 00:54:10;;;;;;;10.77;9.70;;;10.20;99.90;;;;;;5074467;28;20445;-60
2023/11/12 00:56:36;;;;;;;12.03;10.83;;;10.10;99.90;;;;;;5073565;28;20414;-60
2023/11/12 00:59:05;;;;;;;11.33;10.13;;;10.10;99.90;;;;;;5074188;28;20448;-60
2023/11/12 01:01:31;;;;;;;11.80;10.33;;;10.10;99.90;;;;;;5071688;28;20463;-60
2023/11/12 01:03:56;;;;;;;16.13;10.63;;;10.30;99.90;;;;;;5074333;28;20429;-59
2023/11/12 01:06:22;;;;;;;11.33;10.23;;;10.00;99.90;;;;;;5072011;28;20445;-59
2023/11/12 01:08:49;;;;;;;10.93;9.87;;;10.00;99.90;;;;;;5074148;28;20175;-60
2023/11/12 01:11:15;;;;;;;12.80;11.00;;;10.00;99.90;;;;;;5074680;28;20439;-59
2023/11/12 01:13:41;;;;;;;11.30;10.10;;;10.10;99.90;;;;;;5073974;28;20401;-60
2023/11/12 01:16:08;;;;;;;11.77;10.70;;;10.30;99.90;;;;;;5061368;28;20456;-60
2023/11/12 01:18:35;;;;;;;12.30;10.47;;;10.10;99.90;;;;;;5053107;28;20411;-59
2023/11/12 01:21:04;;;;;;;14.43;11.40;;;10.00;99.90;;;;;;5053952;28;20500;-60
2023/11/12 01:23:30;;;;;;;13.53;12.13;;;10.10;99.90;;;;;;5053321;28;20437;-59
2023/11/12 01:25:57;;;;;;;12.70;11.40;;;10.10;99.90;;;;;;5053562;28;20489;-60
2023/11/12 01:28:23;;;;;;;12.73;10.70;;;10.10;99.90;;;;;;5053096;28;20423;-60
2023/11/12 01:30:49;;;;;;;15.93;12.57;;;10.10;99.90;;;;;;5053282;28;20436;-60
2023/11/12 01:33:19;;;;;;;19.10;12.57;;;10.10;99.90;;;;;;5054026;28;20729;-60
2023/11/12 01:35:45;;;;;;;13.00;11.73;;;10.20;99.90;;;;;;5053893;28;20767;-60
2023/11/12 01:38:10;;;;;;;13.50;12.10;;;10.30;99.90;;;;;;5053675;28;20400;-60
2023/11/12 01:40:41;;;;;;;13.57;12.13;;;10.20;99.90;;;;;;5053175;28;20439;-60
2023/11/12 01:43:07;;;;;;;14.27;11.83;;;10.20;99.90;;;;;;5053594;28;20170;-60
2023/11/12 01:45:33;;;;;;;14.20;12.10;;;10.30;99.90;;;;;;5052785;28;20466;-60
2023/11/12 01:47:59;;;;;;;12.40;11.20;;;10.30;99.90;;;;;;5053439;28;20557;-60
2023/11/12 01:50:25;;;;;;;13.80;11.80;;;10.30;99.90;;;;;;5052983;28;20411;-60
2023/11/12 01:52:52;;;;;;;12.83;11.47;;;10.60;99.90;;;;;;5053244;28;20539;-59
2023/11/12 01:55:20;;;;;;;12.90;11.50;;;10.50;99.90;;;;;;5052687;28;20642;-59
2023/11/12 01:57:47;;;;;;;13.60;12.17;;;10.40;99.90;;;;;;5053456;28;20492;-59
2023/11/12 02:00:15;;;;;;;13.53;11.63;;;10.40;99.90;;;;;;5052217;28;20593;-60
2023/11/12 02:02:42;;;;;;;14.23;12.30;;;10.40;99.90;;;;;;5052243;28;20409;-60
2023/11/12 02:05:08;;;;;;;13.70;11.73;;;10.30;99.90;;;;;;5052857;28;20421;-60
2023/11/12 02:07:47;;;;;;;12.73;11.40;;;10.20;99.90;;;;;;5052445;28;20450;-59
2023/11/12 02:10:15;;;;;;;13.23;11.60;;;10.30;99.90;;;;;;5052765;28;20434;-60
2023/11/12 02:12:45;;;;;;;12.67;11.40;;;10.30;99.90;;;;;;5052397;28;20510;-59
2023/11/12 02:15:15;;;;;;;13.73;12.20;;;10.30;99.90;;;;;;5052906;28;20449;-59
2023/11/12 02:17:44;;;;;;;14.77;11.40;;;10.40;99.90;;;;;;5052314;28;20424;-59
2023/11/12 02:20:14;;;;;;;13.03;11.73;;;10.40;99.90;;;;;;5052745;28;20447;-60
2023/11/12 02:22:40;;;;;;;12.37;10.93;;;10.40;99.90;;;;;;5051979;28;20848;-59
2023/11/12 02:25:06;;;;;;;13.10;11.80;;;10.40;99.90;;;;;;5053027;28;20404;-59
2023/11/12 02:27:32;;;;;;;13.20;11.83;;;10.50;99.90;;;;;;5034770;28;20457;-59
2023/11/12 02:29:58;;;;;;;12.87;11.60;;;10.50;99.90;;;;;;5051384;28;20424;-59
2023/11/12 02:32:32;;;;;;;12.13;10.90;;;10.50;99.90;;;;;;5050939;28;20266;-59
2023/11/12 02:35:00;;;;;;;13.10;11.70;;;10.50;99.90;;;;;;5052634;28;20427;-59
2023/11/12 02:37:26;;;;;;;13.20;11.10;;;10.50;99.90;;;;;;5052038;28;20473;-59
2023/11/12 02:39:52;;;;;;;12.03;10.73;;;10.50;99.90;;;;;;5034663;28;20452;-59
2023/11/12 02:42:21;;;;;;;13.47;12.10;;;10.50;99.90;;;;;;5052514;28;20411;-60
2023/11/12 02:44:51;;;;;;;13.97;12.50;;;10.40;99.90;;;;;;5052624;28;20889;-60
2023/11/12 02:47:17;;;;;;;12.80;11.50;;;10.40;99.90;;;;;;5052478;28;20436;-60
2023/11/12 02:50:10;;;;;;;12.07;10.97;;;10.70;99.90;;;;;;5051359;28;20521;-60
2023/11/12 02:52:36;;;;;;;12.80;11.47;;;10.40;99.90;;;;;;5052046;28;20404;-59
2023/11/12 02:55:02;;;;;;;13.00;11.67;;;10.30;99.90;;;;;;5034392;28;20775;-60
2023/11/12 02:57:27;;;;;;;12.70;11.50;;;10.30;99.90;;;;;;5052021;28;20178;-59
2023/11/12 02:59:56;;;;;;;13.63;10.80;;;10.30;99.90;;;;;;5050000;28;20454;-60
2023/11/12 03:02:24;;;;;;;15.00;11.90;;;10.30;99.90;;;;;;5051116;28;20227;-59
2023/11/12 03:04:51;;;;;;;13.03;11.03;;;10.30;99.90;;;;;;5052251;28;20422;-60
2023/11/12 03:07:19;;;;;;;13.40;11.73;;;10.30;99.90;;;;;;5052218;28;20490;-60
2023/11/12 03:09:46;;;;;;;12.57;11.20;;;10.30;99.90;;;;;;5051414;28;20433;-60
2023/11/12 03:12:11;;;;;;;13.30;11.57;;;10.50;99.90;;;;;;5052450;28;20427;-60
2023/11/12 03:14:37;;;;;;;13.33;11.90;;;10.30;99.90;;;;;;5051734;28;20464;-58
2023/11/12 03:17:03;;;;;;;13.03;11.30;;;10.30;99.90;;;;;;5038273;28;20676;-60
2023/11/12 03:19:29;;;;;;;12.90;11.60;;;10.40;99.90;;;;;;5034054;28;20206;-59
2023/11/12 03:21:55;;;;;;;11.90;10.80;;;10.30;99.90;;;;;;5036540;28;20429;-59
2023/11/12 03:24:24;;;;;;;13.27;11.40;;;10.40;99.90;;;;;;5036218;28;20162;-60
2023/11/12 03:26:50;;;;;;;11.73;10.60;;;10.30;99.90;;;;;;5036188;28;20930;-59
2023/11/12 03:29:17;;;;;;;12.07;10.87;;;10.60;99.90;;;;;;5043663;28;20418;-59
2023/11/12 03:31:44;;;;;;;12.33;11.03;;;10.30;99.90;;;;;;5055185;28;20707;-60
2023/11/12 03:34:13;;;;;;;13.23;11.93;;;10.30;99.90;;;;;;5038229;28;20412;-60
2023/11/12 03:36:39;;;;;;;12.50;11.20;;;10.30;99.90;;;;;;5037636;28;20405;-59
2023/11/12 03:39:06;;;;;;;12.43;11.17;;;10.30;99.90;;;;;;5037920;28;20463;-60
2023/11/12 03:41:32;;;;;;;11.67;10.50;;;10.30;99.90;;;;;;5055224;28;20873;-60
2023/11/12 03:43:58;;;;;;;11.73;10.53;;;10.20;99.90;;;;;;5037545;28;20905;-59
2023/11/12 03:46:24;;;;;;;12.73;11.43;;;10.30;99.90;;;;;;5055318;28;20433;-58
2023/11/12 03:48:49;;;;;;;12.43;11.23;;;10.40;99.90;;;;;;5055141;28;20895;-60
2023/11/12 03:51:15;;;;;;;11.80;10.67;;;10.20;99.90;;;;;;5037993;28;20407;-60
2023/11/12 03:53:41;;;;;;;11.10;9.57;;;10.20;99.90;;;;;;5054965;28;20573;-59
2023/11/12 03:56:07;;;;;;;10.73;9.70;;;10.30;99.90;;;;;;5055524;28;20169;-59
2023/11/12 03:58:33;;;;;;;12.30;11.10;;;10.20;99.90;;;;;;5054621;28;20247;-59
2023/11/12 04:00:59;;;;;;;12.10;10.10;;;10.20;99.90;;;;;;5054559;28;20466;-59
2023/11/12 04:03:27;;;;;;;12.07;10.97;;;10.20;99.90;;;;;;5055099;28;20400;-59
2023/11/12 04:05:53;;;;;;;10.80;9.80;;;10.20;99.90;;;;;;5055471;28;20412;-59
2023/11/12 04:08:19;;;;;;;11.90;10.80;;;10.20;99.90;;;;;;5054865;28;20492;-60
2023/11/12 04:10:46;;;;;;;16.97;11.90;;;10.20;99.90;;;;;;5054582;28;20748;-60
2023/11/12 04:13:12;;;;;;;11.37;10.33;;;10.20;99.90;;;;;;5037609;28;20455;-60
2023/11/12 04:15:38;;;;;;;11.70;10.60;;;10.10;99.90;;;;;;5054350;28;20826;-61
2023/11/12 04:18:04;;;;;;;9.90;9.00;;;10.20;99.90;;;;;;5055102;28;20424;-60
2023/11/12 04:20:32;;;;;;;12.97;11.77;;;10.20;99.90;;;;;;5054451;28;20203;-60
2023/11/12 04:22:58;;;;;;;11.20;10.10;;;10.20;99.90;;;;;;5055059;28;20506;-60
2023/11/12 04:25:25;;;;;;;11.83;10.70;;;10.20;99.90;;;;;;5054813;28;20419;-60
2023/11/12 04:27:51;;;;;;;10.70;9.70;;;10.20;99.90;;;;;;5054610;28;20432;-60
2023/11/12 04:30:17;;;;;;;11.80;10.60;;;10.30;99.90;;;;;;5036072;28;20785;-60
2023/11/12 04:32:47;;;;;;;12.57;11.47;;;10.40;99.90;;;;;;5054278;28;20407;-60
2023/11/12 04:35:13;;;;;;;11.37;10.17;;;10.30;99.90;;;;;;5054876;28;20426;-60
2023/11/12 04:37:39;;;;;;;14.80;10.83;;;10.30;99.90;;;;;;5054203;28;20493;-60
2023/11/12 04:40:06;;;;;;;9.70;8.80;;;10.30;99.90;;;;;;5054976;28;20232;-60
2023/11/12 04:42:32;;;;;;;10.13;9.13;;;10.10;99.90;;;;;;5054080;28;20407;-59
2023/11/12 04:44:58;;;;;;;10.77;9.37;;;10.10;99.90;;;;;;5054508;28;20751;-60
2023/11/12 04:47:24;;;;;;;9.60;8.80;;;10.10;99.90;;;;;;5054485;28;20433;-60
2023/11/12 04:49:51;;;;;;;9.40;8.40;;;10.10;99.90;;;;;;5036096;28;20255;-60
2023/11/12 04:52:18;;;;;;;13.67;9.03;;;10.10;99.90;;;;;;5054747;28;20410;-61
2023/11/12 04:54:47;;;;;;;9.40;8.50;;;10.10;99.90;;;;;;5053554;28;20829;-60
2023/11/12 04:57:14;;;;;;;8.63;7.87;;;10.10;99.90;;;;;;5054386;28;20808;-61
2023/11/12 04:59:42;;;;;;;9.00;8.20;;;9.90;99.90;;;;;;5052700;28;20800;-60
2023/11/12 05:02:12;;;;;;;8.73;7.90;;;10.00;99.90;;;;;;5036451;28;20746;-61
2023/11/12 05:04:41;;;;;;;8.90;8.20;;;10.10;99.90;;;;;;5053624;28;20450;-60
2023/11/12 05:07:07;;;;;;;8.90;8.10;;;10.10;99.90;;;;;;5054522;28;20463;-60
2023/11/12 05:09:33;;;;;;;10.03;8.23;;;10.30;99.90;;;;;;5053564;28;20415;-60
2023/11/12 05:11:59;;;;;;;8.90;8.10;;;10.00;99.90;;;;;;5054121;28;20424;-60
2023/11/12 05:14:25;;;;;;;8.90;8.00;;;10.10;99.90;;;;;;5054067;28;20189;-60
2023/11/12 05:16:50;;;;;;;8.40;7.63;;;10.10;99.90;;;;;;5053384;28;20851;-60
2023/11/12 05:19:16;;;;;;;10.33;8.33;;;10.20;99.90;;;;;;5053901;28;20240;-60
2023/11/12 05:21:45;;;;;;;8.50;7.70;;;10.20;99.90;;;;;;5052884;28;20193;-60
2023/11/12 05:24:14;;;;;;;11.63;8.37;;;10.30;99.90;;;;;;5053683;28;20218;-60
2023/11/12 05:26:40;;;;;;;8.70;8.00;;;10.50;99.90;;;;;;5053105;28;20430;-60
2023/11/12 05:29:07;;;;;;;8.77;7.97;;;10.40;99.90;;;;;;5052918;28;20872;-60
2023/11/12 05:31:33;;;;;;;8.23;7.47;;;10.40;99.90;;;;;;5053433;28;20419;-59
2023/11/12 05:34:00;;;;;;;8.57;7.83;;;10.50;99.90;;;;;;5035774;28;20433;-60
2023/11/12 05:36:26;;;;;;;8.17;7.47;;;10.70;99.90;;;;;;5053386;28;20423;-60
2023/11/12 05:38:52;;;;;;;8.20;7.60;;;10.60;99.90;;;;;;5052601;28;20407;-60
2023/11/12 05:41:18;;;;;;;7.77;7.07;;;10.70;99.90;;;;;;5053225;28;20424;-60
2023/11/12 05:43:43;;;;;;;8.40;7.10;;;10.60;99.90;;;;;;5052803;28;20165;-60
2023/11/12 05:46:09;;;;;;;8.33;7.63;;;10.60;99.90;;;;;;5053310;28;20222;-60
2023/11/12 05:48:35;;;;;;;8.80;7.53;;;10.70;99.90;;;;;;5052533;28;20231;-60
2023/11/12 05:51:02;;;;;;;7.70;7.10;;;10.70;99.90;;;;;;5052366;28;20586;-60
2023/11/12 05:53:28;;;;;;;7.57;6.87;;;10.70;99.90;;;;;;5052786;28;20516;-60
2023/11/12 05:55:54;;;;;;;8.57;7.43;;;10.70;99.90;;;;;;5052689;28;20831;-60
2023/11/12 05:58:20;;;;;;;7.60;7.00;;;10.80;99.90;;;;;;5035401;28;20451;-60
2023/11/12 06:00:46;;;;;;;8.10;7.30;;;10.70;99.90;;;;;;5052562;28;20199;-60
2023/11/12 06:03:12;;;;;;;8.40;6.80;;;10.70;99.90;;;;;;5035783;28;20473;-60
2023/11/12 06:05:39;;;;;;;7.07;6.53;;;10.70;99.90;;;;;;5052521;28;20406;-59
2023/11/12 06:08:05;;;;;;;7.80;7.20;;;10.70;99.90;;;;;;5052992;28;20458;-60
2023/11/12 06:10:31;;;;;;;7.43;6.83;;;10.90;99.90;;;;;;5052963;28;20408;-60
2023/11/12 06:12:57;;;;;;;7.40;6.80;;;10.60;99.90;;;;;;5052395;28;20169;-60
2023/11/12 06:15:27;;;;;;;6.83;6.33;;;10.60;99.90;;;;;;5064018;28;20925;-60
2023/11/12 06:17:53;;;;;;;7.40;6.80;;;10.60;99.90;;;;;;5091185;28;20993;-60
2023/11/12 06:20:19;;;;;;;6.80;6.30;;;10.70;99.90;;;;;;5093276;28;20472;-60
2023/11/12 06:22:45;;;;;;;6.90;6.30;;;10.60;99.90;;;;;;5092477;28;20438;-60
2023/11/12 06:25:11;;;;;;;7.37;6.67;;;10.60;99.90;;;;;;5093104;28;20976;-60
2023/11/12 06:27:40;;;;;;;6.93;6.43;;;10.40;99.90;;;;;;5092351;28;20175;-60
2023/11/12 06:30:10;;;;;;;6.67;5.43;;;10.60;99.90;;;;;;5092903;28;20442;-60
2023/11/12 06:32:38;;;;;;;6.80;6.30;;;10.60;99.90;;;;;;5092465;28;20415;-60
2023/11/12 06:35:04;;;;;;;6.70;6.20;;;10.60;99.90;;;;;;5055993;28;20441;-60
2023/11/12 06:37:30;;;;;;;7.50;6.80;;;10.60;99.90;;;;;;5070820;28;20431;-60
2023/11/12 06:39:56;;;;;;;7.03;6.53;;;10.60;99.90;;;;;;5071873;28;20446;-60
2023/11/12 06:42:23;;;;;;;6.53;6.00;;;10.60;99.90;;;;;;5071654;28;20411;-60
2023/11/12 06:44:49;;;;;;;6.67;6.17;;;10.60;99.90;;;;;;5072473;28;21299;-60
2023/11/12 06:47:15;;;;;;;6.07;5.77;;;10.60;99.90;;;;;;5063210;28;20514;-60
2023/11/12 06:49:40;;;;;;;6.10;5.70;;;10.60;99.90;;;;;;5050851;28;20199;-60
2023/11/12 06:52:06;;;;;;;5.93;5.30;;;10.60;99.90;;;;;;5052402;28;20421;-60
2023/11/12 06:54:32;;;;;;;6.20;5.70;;;10.60;99.90;;;;;;5052426;28;20177;-60
2023/11/12 06:56:59;;;;;;;6.47;5.97;;;10.60;99.90;;;;;;5063985;28;20181;-60
2023/11/12 06:59:25;;;;;;;6.40;5.90;;;10.60;99.90;;;;;;5072293;28;20196;-60
2023/11/12 07:01:51;;;;;;;6.33;5.93;;;10.60;99.90;;;;;;5069988;28;20456;-60
2023/11/12 07:04:17;;;;;;;6.87;6.37;;;10.70;99.90;;;;;;5062637;28;20443;-60
2023/11/12 07:06:43;;;;;;;5.83;5.43;;;10.70;99.90;;;;;;5052658;28;20224;-60
2023/11/12 07:09:10;;;;;;;6.83;6.23;;;10.70;99.90;;;;;;5052235;28;20419;-60
2023/11/12 07:11:36;;;;;;;8.20;6.23;;;10.70;99.90;;;;;;5051849;28;20254;-60
2023/11/12 07:14:02;;;;;;;5.70;5.30;;;10.70;99.90;;;;;;5056174;28;20830;-60
2023/11/12 07:16:28;;;;;;;6.20;5.70;;;10.80;99.90;;;;;;5086885;28;20500;-60
2023/11/12 07:18:55;;;;;;;7.30;6.00;;;10.90;99.90;;;;;;5090255;28;20434;-60
2023/11/12 07:21:26;;;;;;;6.87;6.27;;;11.00;99.90;;;;;;5092357;28;20171;-60
2023/11/12 07:23:52;;;;;;;7.03;5.87;;;10.80;99.90;;;;;;5091952;28;20405;-60
2023/11/12 07:26:18;;;;;;;7.00;6.40;;;10.80;99.90;;;;;;5092287;28;20408;-60
2023/11/12 07:28:44;;;;;;;6.90;6.30;;;10.80;99.90;;;;;;5074877;28;20794;-60
2023/11/12 07:31:09;;;;;;;7.00;6.40;;;10.80;99.90;;;;;;5065098;28;20203;-60
2023/11/12 07:33:35;;;;;;;6.73;6.10;;;10.80;99.90;;;;;;5052082;28;20171;-60
2023/11/12 07:36:01;;;;;;;6.13;5.60;;;10.80;99.90;;;;;;5051361;28;20178;-60
2023/11/12 07:38:27;;;;;;;5.40;4.70;;;10.90;99.90;;;;;;5052207;28;20180;-60
2023/11/12 07:40:53;;;;;;;5.83;5.33;;;10.90;99.90;;;;;;5064731;28;20502;-60
2023/11/12 07:43:19;;;;;;;6.07;5.67;;;10.80;99.90;;;;;;5072182;28;20164;-60
2023/11/12 07:45:45;;;;;;;6.50;5.87;;;10.80;99.90;;;;;;5072384;28;20424;-61
2023/11/12 07:48:11;;;;;;;6.00;5.50;;;10.80;99.90;;;;;;5041087;28;20424;-60
2023/11/12 07:50:38;;;;;;;5.77;5.37;;;10.60;99.90;;;;;;5070015;28;20427;-60
2023/11/12 07:53:04;;;;;;;5.63;5.23;;;10.60;99.90;;;;;;5055096;28;20192;-60
2023/11/12 07:55:29;;;;;;;7.50;6.80;;;10.70;99.90;;;;;;5071699;28;20423;-60
2023/11/12 07:57:56;;;;;;;6.47;5.90;;;10.70;99.90;;;;;;5069446;28;20269;-60
2023/11/12 08:00:22;;;;;;;8.80;6.57;;;10.70;99.90;;;;;;5071674;28;20281;-59
2023/11/12 08:02:48;;;;;;;6.60;6.20;;;10.50;99.90;;;;;;5074533;28;20815;-59
2023/11/12 08:05:14;;;;;;;7.00;6.30;;;10.80;99.90;;;;;;5074498;28;20166;-62
2023/11/12 08:07:40;;;;;;;6.67;6.27;;;10.60;99.90;;;;;;5074728;28;20750;-64
2023/11/12 08:10:08;;;;;;;7.23;6.73;;;10.70;99.90;;;;;;5075282;28;20491;-64
2023/11/12 08:12:37;;;;;;;6.63;6.23;;;10.70;99.90;;;;;;5052486;28;20419;-59
2023/11/12 08:15:05;;;;;;;6.63;6.13;;;10.70;99.90;;;;;;5062149;28;20465;-58
2023/11/12 08:17:32;;;;;;;8.10;7.60;;;11.00;99.90;;;;;;5052020;28;20443;-59
2023/11/12 08:19:57;;;;;;;7.60;7.10;;;11.50;99.90;;;;;;5094686;28;20440;-59
2023/11/12 08:22:23;;;;;;;7.60;7.03;;;11.90;99.90;;;;;;5095452;28;20768;-59
2023/11/12 08:24:49;;;;;;;16.47;8.67;;;12.30;99.90;;;;;;5094725;28;20561;-59
2023/11/12 08:27:15;;;;;;;7.47;6.97;;;12.80;99.90;;;;;;5074131;28;20627;-59
2023/11/12 08:29:41;;;;;;;8.30;7.57;;;13.00;99.90;;;;;;5087797;28;20203;-59
2023/11/12 08:32:06;;;;;;;6.77;6.33;;;13.10;99.90;;;;;;5091789;28;20434;-59
2023/11/12 08:34:33;;;;;;;6.83;6.33;;;13.30;99.90;;;;;;5095151;28;20455;-59
2023/11/12 08:36:59;;;;;;;6.60;6.10;;;13.50;99.90;;;;;;5094480;28;20180;-59
2023/11/12 08:39:27;;;;;;;6.60;6.10;;;13.90;99.90;;;;;;5091638;28;20445;-59
2023/11/12 08:41:53;;;;;;;6.07;5.67;;;14.10;99.90;;;;;;5090962;28;20430;-59
2023/11/12 08:44:19;;;;;;;5.47;4.90;;;14.50;99.90;;;;;;5060464;28;20501;-61
2023/11/12 08:46:45;;;;;;;7.50;6.80;;;14.80;99.90;;;;;;5072275;28;20436;-60
2023/11/12 08:49:12;;;;;;;5.60;5.20;;;14.90;99.90;;;;;;5083625;28;20184;-59
2023/11/12 08:51:38;;;;;;;6.67;6.07;;;14.70;96.70;;;;;;5088389;28;20169;-59
2023/11/12 08:54:05;;;;;;;5.37;4.97;;;14.90;98.10;;;;;;5081297;28;20426;-59
2023/11/12 08:56:31;;;;;;;4.87;4.43;;;15.40;96.60;;;;;;5078736;28;20419;-60
2023/11/12 08:58:58;;;;;;;4.90;4.17;;;16.00;95.10;;;;;;5064385;28;20456;-59
2023/11/12 09:01:24;;;;;;;4.60;4.20;;;16.40;94.20;;;;;;5041181;28;20428;-59
2023/11/12 09:03:50;;;;;;;5.93;4.70;;;16.80;92.70;;;;;;5069320;28;20476;-60
2023/11/12 09:06:16;;;;;;;4.83;4.40;;;17.00;91.60;;;;;;5073739;28;20526;-59
2023/11/12 09:08:42;;;;;;;4.60;4.30;;;17.10;90.50;;;;;;5094348;28;20422;-59
2023/11/12 09:11:09;;;;;;;4.73;4.33;;;17.30;89.90;;;;;;5076027;28;20180;-59
2023/11/12 09:13:35;;;;;;;4.77;4.47;;;17.40;89.20;;;;;;5093297;28;20169;-59
2023/11/12 09:16:01;;;;;;;5.47;5.07;;;17.60;90.20;;;;;;5093349;28;20457;-59
2023/11/12 09:18:27;;;;;;;6.10;5.10;;;17.80;87.00;;;;;;5077748;28;20177;-59
2023/11/12 09:20:52;;;;;;;4.90;4.60;;;18.00;86.70;;;;;;5073180;28;20241;-59
2023/11/12 09:23:18;;;;;;;5.33;5.03;;;18.30;85.90;;;;;;5060040;28;20174;-59
2023/11/12 09:25:45;;;;;;;5.30;5.00;;;18.50;85.00;;;;;;5053250;28;20248;-59
2023/11/12 09:28:11;;;;;;;4.90;4.60;;;18.70;82.60;;;;;;5049106;28;20265;-59
2023/11/12 09:30:37;;;;;;;5.27;4.87;;;18.80;81.50;;;;;;5057300;28;20415;-58
2023/11/12 09:33:09;;;;;;;5.30;5.00;;;18.80;81.40;;;;;;5071372;28;20518;-58
2023/11/12 09:35:35;;;;;;;5.10;4.80;;;18.90;80.90;;;;;;5068774;28;20434;-59
2023/11/12 09:38:01;;;;;;;5.60;5.07;;;18.70;78.20;;;;;;5052799;28;20427;-58
2023/11/12 09:40:31;;;;;;;6.03;5.20;;;18.60;80.20;;;;;;5063928;28;20971;-59
2023/11/12 09:42:57;;;;;;;7.00;6.50;;;18.60;81.20;;;;;;5055431;28;20422;-65
2023/11/12 09:45:24;;;;;;;218.50;156.03;;;18.00;77.90;;;;;;5066888;28;20503;-64
2023/11/12 09:47:53;;;;;;;27.13;20.80;;;17.70;80.20;;;;;;5072240;28;20856;-64
2023/11/12 09:50:20;;;;;;;5.80;5.40;;;17.50;81.40;;;;;;5065559;28;20420;-67
2023/11/12 09:52:47;;;;;;;5.30;4.90;;;17.20;81.70;;;;;;5058399;28;20511;-68
2023/11/12 09:55:15;;;;;;;5.50;5.20;;;17.00;82.80;;;;;;5070123;28;20473;-65
2023/11/12 09:57:41;;;;;;;6.23;5.80;;;16.80;83.50;;;;;;5062637;28;20436;-64
2023/11/12 10:00:08;;;;;;;5.53;5.13;;;16.80;84.10;;;;;;5057078;28;20475;-65
2023/11/12 10:02:35;;;;;;;7.80;6.57;;;16.70;84.00;;;;;;5061779;28;20418;-65
2023/11/12 10:05:10;;;;;;;4.90;4.60;;;16.70;83.30;;;;;;5068742;28;20431;-64
2023/11/12 10:07:36;;;;;;;4.87;4.67;;;16.80;83.70;;;;;;5055698;28;20770;-65
2023/11/12 10:10:21;;;;;;;5.17;4.77;;;16.80;84.00;;;;;;5047451;28;20420;-66
2023/11/12 10:12:48;;;;;;;5.73;5.33;;;16.80;83.10;;;;;;5050962;28;20478;-68
2023/11/12 10:15:14;;;;;;;7.73;5.13;;;16.80;82.50;;;;;;5048546;28;20477;-67
2023/11/12 10:17:46;;;;;;;5.60;5.30;;;17.00;84.30;;;;;;5030566;28;20483;-64
2023/11/12 10:20:35;;;;;;;5.77;5.27;;;17.10;84.00;;;;;;5032118;28;20452;-64
2023/11/12 10:23:02;;;;;;;5.50;5.10;;;16.90;81.70;;;;;;5028891;28;20531;-66
2023/11/12 10:25:47;;;;;;;5.50;5.00;;;16.90;81.50;;;;;;5032146;28;20456;-64
2023/11/12 10:28:13;;;;;;;5.70;5.40;;;17.00;82.30;;;;;;5029632;28;20428;-65
2023/11/12 10:30:40;;;;;;;5.20;4.80;;;17.00;81.60;;;;;;5030133;28;20420;-66
2023/11/12 10:33:20;;;;;;;5.53;5.13;;;17.10;82.70;;;;;;5029044;28;20185;-64
2023/11/12 10:35:47;;;;;;;5.20;4.90;;;17.40;82.40;;;;;;5035091;28;20447;-64
2023/11/12 10:38:15;;;;;;;5.67;5.20;;;17.70;80.60;;;;;;5048639;28;20511;-64
2023/11/12 10:41:04;;;;;;;5.30;4.90;;;17.80;79.80;;;;;;5034560;28;20451;-69
2023/11/12 10:43:31;;;;;;;5.67;5.37;;;18.10;79.50;;;;;;5032645;28;20431;-69
2023/11/12 10:45:59;;;;;;;6.40;6.00;;;18.20;78.80;;;;;;5031992;28;20550;-69
2023/11/12 10:48:36;;;;;;;6.57;6.07;;;18.30;78.30;;;;;;5032563;28;20413;-69
2023/11/12 10:51:08;;;;;;;5.23;4.93;;;18.40;77.60;;;;;;5032031;28;20392;-69
2023/11/12 10:53:36;;;;;;;6.10;5.50;;;18.40;76.60;;;;;;5032567;28;20436;-69
2023/11/12 10:56:04;;;;;;;5.80;5.40;;;18.30;77.40;;;;;;5031822;28;20409;-69
2023/11/12 10:58:31;;;;;;;5.43;5.13;;;18.30;77.40;;;;;;5035768;28;20426;-69
2023/11/12 11:01:01;;;;;;;5.87;5.37;;;18.20;76.80;;;;;;5051808;28;20447;-69
2023/11/12 11:03:29;;;;;;;6.50;5.03;;;17.90;76.20;;;;;;5052106;28;20455;-69
2023/11/12 11:05:56;;;;;;;5.30;5.00;;;17.50;77.80;;;;;;5030159;28;20418;-65
2023/11/12 11:08:23;;;;;;;5.30;5.00;;;17.40;78.80;;;;;;5038830;28;20420;-66
2023/11/12 11:10:50;;;;;;;4.97;4.70;;;17.10;80.60;;;;;;5037526;28;20429;-67
2023/11/12 11:13:16;;;;;;;44.40;33.60;;;17.40;81.10;;;;;;5045924;28;20442;-66
2023/11/12 11:15:55;;;;;;;12.93;11.57;;;17.60;80.10;;;;;;5043248;28;20934;-64
2023/11/12 11:18:32;;;;;;;5.07;4.63;;;17.50;78.90;;;;;;5060941;28;20420;-66
2023/11/12 11:21:14;;;;;;;4.67;4.30;;;17.80;77.60;;;;;;5067555;28;20785;-66
2023/11/12 11:23:49;;;;;;;5.17;4.60;;;18.00;78.20;;;;;;5062971;28;20455;-67
2023/11/12 11:26:27;;;;;;;4.43;4.03;;;18.20;76.70;;;;;;5061970;28;20418;-65
2023/11/12 11:29:05;;;;;;;4.50;4.20;;;18.20;76.20;;;;;;5065456;28;20759;-66
2023/11/12 11:31:31;;;;;;;4.23;3.90;;;18.20;76.30;;;;;;5067528;28;20510;-65
2023/11/12 11:33:58;;;;;;;3.90;3.70;;;18.20;76.30;;;;;;5053031;28;20802;-65
2023/11/12 11:36:25;;;;;;;3.77;3.53;;;17.90;74.00;;;;;;5063596;28;20805;-67
2023/11/12 11:39:10;;;;;;;3.57;3.37;;;17.80;77.20;;;;;;5069026;28;20437;-65
2023/11/12 11:41:42;;;;;;;3.70;3.50;;;17.70;75.90;;;;;;5065411;28;20809;-64
2023/11/12 11:44:45;;;;;;;4.13;3.83;;;17.40;75.20;;;;;;5072926;28;20898;-64
2023/11/12 11:47:14;;;;;;;3.80;3.60;;;17.20;75.60;;;;;;5070810;28;20513;-64
2023/11/12 11:50:10;;;;;;;4.33;4.13;;;16.80;75.90;;;;;;5071539;28;20423;-66
2023/11/12 11:52:41;;;;;;;4.23;3.93;;;16.40;78.70;;;;;;5075568;28;20806;-65
2023/11/12 11:55:25;;;;;;;307.13;205.27;;;16.30;79.70;;;;;;5067384;28;20489;-65
2023/11/12 11:57:56;;;;;;;6.20;5.80;;;16.10;81.30;;;;;;5055699;28;20533;-66
2023/11/12 12:00:21;;;;;;;3.73;3.40;;;15.90;81.20;;;;;;5063508;28;20450;-65
2023/11/12 12:02:47;;;;;;;4.37;4.17;;;15.60;81.90;;;;;;5063494;28;20545;-65
2023/11/12 12:05:13;;;;;;;4.30;4.00;;;15.50;83.40;;;;;;5070970;28;20941;-66
2023/11/12 12:07:44;;;;;;;4.97;4.57;;;15.10;82.80;;;;;;5068194;28;20180;-65
2023/11/12 12:10:25;;;;;;;4.50;4.20;;;15.10;85.40;;;;;;5070337;28;20491;-65
2023/11/12 12:12:53;;;;;;;4.30;4.10;;;15.10;85.40;;;;;;5075384;28;20426;-65
2023/11/12 12:15:19;;;;;;;5.13;4.67;;;15.20;85.20;;;;;;5052166;28;20562;-66
2023/11/12 12:17:45;;;;;;;4.80;4.50;;;15.00;85.30;;;;;;5017297;28;20467;-65
2023/11/12 12:20:11;;;;;;;5.40;4.93;;;14.70;85.30;;;;;;5021973;28;20536;-66
2023/11/12 12:22:37;;;;;;;5.50;4.70;;;14.60;87.60;;;;;;5051017;28;20190;-65
2023/11/12 12:25:04;;;;;;;4.43;4.13;;;14.50;88.30;;;;;;5045793;28;20776;-65
2023/11/12 12:27:29;;;;;;;6.37;5.20;;;14.50;88.40;;;;;;5017014;28;20526;-65
2023/11/12 12:29:55;;;;;;;5.50;5.10;;;14.40;89.60;;;;;;5033264;28;20525;-65
2023/11/12 12:32:21;;;;;;;5.50;5.20;;;14.40;90.10;;;;;;5043595;28;20263;-68
2023/11/12 12:34:59;;;;;;;5.90;5.40;;;14.30;90.20;;;;;;5037894;28;20215;-64
2023/11/12 12:37:27;;;;;;;5.63;5.33;;;14.30;90.70;;;;;;5034643;28;20308;-65
2023/11/12 12:40:06;;;;;;;5.73;5.43;;;14.20;91.00;;;;;;5025878;28;20479;-63